createdAt,value
2023-05-19T00:00:02.532Z,6.50
2023-05-19T00:01:02.506Z,6.70
2023-05-19T00:02:02.439Z,6.70
2023-05-19T00:03:02.510Z,7.10
2023-05-19T00:04:02.263Z,6.90
2023-05-19T00:05:02.204Z,7.20
2023-05-19T00:06:02.191Z,6.60
2023-05-19T00:07:02.073Z,7.20
2023-05-19T00:08:02.084Z,7.60
2023-05-19T00:09:01.961Z,6.20
2023-05-19T00:10:01.908Z,6.50
2023-05-19T00:11:01.827Z,6.40
2023-05-19T00:12:01.791Z,7.30
2023-05-19T00:13:01.744Z,7.20
2023-05-19T00:14:01.672Z,7.20
2023-05-19T00:15:01.596Z,6.50
2023-05-19T00:16:01.529Z,7.60
2023-05-19T00:17:01.431Z,7.20
2023-05-19T00:18:01.408Z,6.30
2023-05-19T00:19:01.448Z,6.80
2023-05-19T00:20:01.484Z,7.30
2023-05-19T00:21:01.167Z,6.80
2023-05-19T00:22:01.160Z,6.80
2023-05-19T00:23:01.100Z,6.70
2023-05-19T00:24:00.990Z,6.10
2023-05-19T00:25:01.121Z,6.60
2023-05-19T00:26:00.942Z,6.40
2023-05-19T00:27:00.801Z,6.10
2023-05-19T00:28:00.772Z,6.70
2023-05-19T00:29:01.349Z,6.60
2023-05-19T00:30:00.669Z,6.30
2023-05-19T00:31:00.577Z,6.50
2023-05-19T00:32:00.724Z,7.50
2023-05-19T00:33:00.565Z,6.30
2023-05-19T00:34:00.403Z,7.00
2023-05-19T00:35:00.378Z,6.40
2023-05-19T00:36:00.222Z,6.10
2023-05-19T00:37:00.213Z,6.70
2023-05-19T00:38:00.202Z,6.70
2023-05-19T00:39:00.135Z,6.60
2023-05-19T00:39:59.969Z,7.90
2023-05-19T00:40:59.968Z,5.90
2023-05-19T00:41:59.866Z,6.30
2023-05-19T00:42:59.801Z,6.70
2023-05-19T00:43:59.833Z,6.60
2023-05-19T00:44:59.655Z,7.10
2023-05-19T00:45:59.624Z,6.20
2023-05-19T00:46:59.749Z,6.10
2023-05-19T00:47:59.529Z,6.70
2023-05-19T00:48:59.563Z,6.40
2023-05-19T00:49:59.374Z,6.10
2023-05-19T00:50:59.331Z,6.20
2023-05-19T00:51:59.300Z,6.10
2023-05-19T00:52:59.275Z,6.60
2023-05-19T00:53:59.118Z,6.50
2023-05-19T00:54:59.061Z,6.30
2023-05-19T00:55:58.985Z,6.60
2023-05-19T00:56:59.048Z,6.30
2023-05-19T00:57:59.019Z,5.80
2023-05-19T00:58:58.804Z,7.10
2023-05-19T00:59:58.805Z,6.90
2023-05-19T01:00:58.821Z,6.70
2023-05-19T01:01:58.628Z,6.50
2023-05-19T01:02:58.643Z,7.00
2023-05-19T01:04:01.013Z,6.30
2023-05-19T01:04:58.417Z,8.10
2023-05-19T01:05:58.363Z,6.10
2023-05-19T01:06:58.288Z,6.60
2023-05-19T01:07:58.244Z,6.40
2023-05-19T01:08:59.069Z,6.30
2023-05-19T01:09:58.143Z,7.00
2023-05-19T01:10:58.162Z,6.40
2023-05-19T01:11:58.012Z,5.90
2023-05-19T01:12:57.897Z,5.80
2023-05-19T01:13:57.857Z,6.00
2023-05-19T01:14:57.783Z,6.40
2023-05-19T01:15:57.828Z,7.50
2023-05-19T01:16:57.811Z,6.30
2023-05-19T01:17:57.718Z,7.20
2023-05-19T01:18:57.605Z,6.70
2023-05-19T01:19:57.499Z,6.10
2023-05-19T01:20:57.428Z,6.30
2023-05-19T01:21:57.360Z,5.40
2023-05-19T01:22:57.420Z,6.30
2023-05-19T01:23:57.267Z,6.30
2023-05-19T01:24:57.181Z,6.80
2023-05-19T01:25:57.102Z,6.30
2023-05-19T01:26:57.027Z,6.50
2023-05-19T01:27:56.983Z,6.50
2023-05-19T01:28:57.569Z,6.90
2023-05-19T01:29:56.953Z,6.30
2023-05-19T01:30:56.777Z,6.30
2023-05-19T01:31:56.771Z,6.80
2023-05-19T01:32:56.709Z,6.10
2023-05-19T01:33:56.603Z,6.80
2023-05-19T01:34:56.623Z,6.00
2023-05-19T01:35:56.507Z,6.60
2023-05-19T01:36:56.462Z,5.60
2023-05-19T01:37:56.397Z,7.00
2023-05-19T01:38:56.355Z,6.60
2023-05-19T01:39:56.277Z,5.90
2023-05-19T01:40:56.208Z,7.10
2023-05-19T01:41:56.136Z,6.20
2023-05-19T01:42:57.556Z,6.00
2023-05-19T01:43:56.007Z,5.60
2023-05-19T01:44:55.950Z,6.40
2023-05-19T01:45:56.920Z,6.10
2023-05-19T01:46:55.895Z,5.90
2023-05-19T01:47:55.810Z,6.90
2023-05-19T01:48:55.696Z,5.90
2023-05-19T01:49:55.623Z,6.30
2023-05-19T01:50:55.551Z,6.10
2023-05-19T01:51:55.518Z,6.00
2023-05-19T01:52:55.476Z,6.50
2023-05-19T01:53:55.374Z,6.60
2023-05-19T01:54:55.357Z,5.80
2023-05-19T01:55:55.328Z,6.50
2023-05-19T01:56:55.189Z,7.20
2023-05-19T01:57:55.098Z,6.90
2023-05-19T01:58:55.065Z,6.60
2023-05-19T01:59:55.101Z,6.70
2023-05-19T02:00:54.977Z,6.20
2023-05-19T02:01:54.845Z,6.60
2023-05-19T02:02:54.815Z,6.10
2023-05-19T02:03:54.772Z,6.40
2023-05-19T02:04:54.757Z,6.20
2023-05-19T02:05:54.628Z,5.90
2023-05-19T02:06:54.719Z,7.40
2023-05-19T02:07:54.478Z,6.40
2023-05-19T02:08:54.449Z,6.50
2023-05-19T02:09:54.382Z,6.70
2023-05-19T02:10:54.358Z,6.20
2023-05-19T02:11:54.235Z,6.30
2023-05-19T02:12:54.257Z,5.90
2023-05-19T02:13:54.155Z,6.00
2023-05-19T02:14:54.055Z,6.80
2023-05-19T02:15:53.976Z,6.00
2023-05-19T02:16:54.578Z,6.70
2023-05-19T02:17:54.012Z,6.20
2023-05-19T02:18:53.903Z,6.00
2023-05-19T02:19:53.759Z,6.40
2023-05-19T02:20:53.664Z,6.10
2023-05-19T02:21:53.655Z,6.00
2023-05-19T02:22:53.519Z,6.80
2023-05-19T02:23:53.496Z,6.30
2023-05-19T02:24:53.400Z,6.00
2023-05-19T02:25:53.431Z,7.00
2023-05-19T02:26:53.348Z,6.00
2023-05-19T02:27:53.236Z,5.90
2023-05-19T02:28:53.179Z,6.10
2023-05-19T02:29:53.151Z,6.40
2023-05-19T02:30:53.026Z,6.90
2023-05-19T02:31:53.041Z,5.40
2023-05-19T02:32:52.984Z,6.70
2023-05-19T02:33:52.829Z,5.70
2023-05-19T02:34:52.833Z,6.50
2023-05-19T02:35:52.743Z,5.90
2023-05-19T02:36:52.658Z,7.30
2023-05-19T02:37:52.626Z,5.30
2023-05-19T02:38:52.554Z,5.60
2023-05-19T02:39:52.455Z,6.10
2023-05-19T02:40:52.425Z,5.80
2023-05-19T02:41:52.414Z,5.70
2023-05-19T02:42:52.276Z,6.40
2023-05-19T02:43:52.216Z,6.20
2023-05-19T02:44:52.203Z,5.60
2023-05-19T02:45:52.148Z,6.10
2023-05-19T02:46:52.065Z,6.00
2023-05-19T02:47:51.989Z,6.70
2023-05-19T02:48:51.929Z,5.60
2023-05-19T02:49:51.919Z,6.20
2023-05-19T02:50:51.864Z,6.40
2023-05-19T02:51:51.790Z,6.00
2023-05-19T02:52:51.633Z,5.50
2023-05-19T02:53:51.540Z,5.90
2023-05-19T02:54:51.552Z,5.80
2023-05-19T02:55:51.418Z,6.20
2023-05-19T02:56:51.506Z,5.40
2023-05-19T02:57:51.251Z,5.70
2023-05-19T02:58:51.212Z,6.20
2023-05-19T02:59:51.834Z,6.10
2023-05-19T03:00:51.059Z,6.40
2023-05-19T03:01:51.206Z,6.50
2023-05-19T03:02:50.989Z,6.50
2023-05-19T03:03:51.053Z,6.00
2023-05-19T03:04:50.945Z,6.10
2023-05-19T03:05:50.844Z,7.00
2023-05-19T03:06:50.756Z,6.50
2023-05-19T03:07:50.714Z,6.00
2023-05-19T03:08:50.638Z,6.10
2023-05-19T03:09:50.630Z,5.70
2023-05-19T03:10:50.477Z,5.80
2023-05-19T03:11:50.369Z,5.80
2023-05-19T03:12:50.307Z,6.00
2023-05-19T03:13:50.448Z,5.90
2023-05-19T03:14:50.235Z,5.80
2023-05-19T03:15:50.161Z,6.20
2023-05-19T03:16:50.299Z,6.10
2023-05-19T03:17:50.142Z,5.90
2023-05-19T03:18:50.041Z,6.30
2023-05-19T03:19:49.993Z,6.00
2023-05-19T03:20:49.820Z,5.40
2023-05-19T03:21:49.932Z,6.40
2023-05-19T03:22:49.843Z,5.80
2023-05-19T03:23:49.656Z,6.00
2023-05-19T03:24:49.639Z,6.00
2023-05-19T03:25:49.541Z,6.40
2023-05-19T03:26:49.473Z,6.40
2023-05-19T03:27:49.392Z,6.30
2023-05-19T03:28:49.383Z,6.30
2023-05-19T03:29:49.293Z,6.00
2023-05-19T03:30:49.175Z,6.50
2023-05-19T03:31:49.171Z,6.20
2023-05-19T03:32:49.199Z,5.80
2023-05-19T03:33:49.006Z,5.50
2023-05-19T03:34:48.980Z,7.30
2023-05-19T03:35:48.917Z,5.60
2023-05-19T03:36:48.823Z,5.80
2023-05-19T03:37:48.802Z,6.00
2023-05-19T03:38:49.550Z,6.30
2023-05-19T03:39:48.643Z,6.10
2023-05-19T03:40:49.392Z,6.50
2023-05-19T03:41:48.576Z,7.30
2023-05-19T03:42:48.483Z,6.50
2023-05-19T03:43:48.418Z,6.50
2023-05-19T03:44:49.058Z,6.40
2023-05-19T03:45:48.274Z,5.90
2023-05-19T03:46:48.193Z,6.20
2023-05-19T03:47:48.197Z,6.20
2023-05-19T03:48:48.284Z,7.20
2023-05-19T03:49:48.061Z,5.70
2023-05-19T03:50:47.946Z,6.20
2023-05-19T03:51:47.947Z,6.30
2023-05-19T03:52:47.795Z,7.20
2023-05-19T03:53:47.786Z,6.90
2023-05-19T03:54:47.733Z,6.90
2023-05-19T03:55:47.707Z,5.90
2023-05-19T03:56:47.597Z,6.00
2023-05-19T03:57:47.523Z,6.40
2023-05-19T03:58:47.573Z,6.20
2023-05-19T03:59:47.422Z,7.50
2023-05-19T04:00:47.329Z,6.00
2023-05-19T04:01:48.044Z,6.40
2023-05-19T04:02:47.308Z,6.30
2023-05-19T04:03:47.322Z,6.00
2023-05-19T04:04:47.123Z,6.50
2023-05-19T04:05:46.996Z,6.90
2023-05-19T04:06:46.963Z,6.50
2023-05-19T04:07:46.927Z,7.10
2023-05-19T04:08:46.841Z,7.00
2023-05-19T04:09:46.922Z,7.10
2023-05-19T04:10:46.702Z,6.50
2023-05-19T04:11:46.677Z,7.10
2023-05-19T04:12:46.578Z,6.60
2023-05-19T04:13:46.491Z,6.90
2023-05-19T04:14:46.495Z,7.50
2023-05-19T04:15:46.416Z,7.40
2023-05-19T04:16:46.299Z,8.50
2023-05-19T04:17:46.254Z,7.70
2023-05-19T04:18:46.549Z,6.90
2023-05-19T04:19:46.143Z,7.10
2023-05-19T04:20:46.069Z,8.00
2023-05-19T04:21:46.057Z,7.40
2023-05-19T04:22:45.928Z,8.20
2023-05-19T04:23:45.846Z,8.90
2023-05-19T04:24:45.819Z,9.30
2023-05-19T04:25:45.766Z,8.90
2023-05-19T04:26:45.699Z,8.50
2023-05-19T04:27:45.684Z,8.40
2023-05-19T04:28:45.605Z,8.00
2023-05-19T04:29:45.526Z,8.90
2023-05-19T04:30:45.460Z,8.60
2023-05-19T04:31:46.074Z,8.50
2023-05-19T04:32:45.295Z,8.10
2023-05-19T04:33:45.259Z,8.10
2023-05-19T04:34:45.807Z,8.60
2023-05-19T04:35:45.150Z,8.30
2023-05-19T04:36:45.080Z,8.90
2023-05-19T04:37:45.011Z,9.50
2023-05-19T04:38:44.952Z,8.50
2023-05-19T04:39:44.920Z,9.40
2023-05-19T04:40:44.853Z,11.00
2023-05-19T04:41:44.754Z,9.10
2023-05-19T04:42:44.685Z,9.20
2023-05-19T04:43:44.643Z,9.00
2023-05-19T04:44:44.536Z,9.00
2023-05-19T04:45:44.455Z,7.60
2023-05-19T04:46:44.497Z,8.50
2023-05-19T04:47:44.502Z,8.60
2023-05-19T04:48:44.291Z,8.80
2023-05-19T04:49:44.227Z,8.10
2023-05-19T04:50:44.213Z,8.60
2023-05-19T04:51:44.126Z,8.60
2023-05-19T04:52:44.088Z,7.50
2023-05-19T04:53:44.042Z,8.40
2023-05-19T04:54:43.933Z,7.50
2023-05-19T04:55:43.823Z,8.40
2023-05-19T04:56:43.792Z,7.70
2023-05-19T04:57:43.721Z,9.20
2023-05-19T04:58:43.684Z,8.20
2023-05-19T04:59:43.619Z,8.10
2023-05-19T05:00:43.525Z,8.80
2023-05-19T05:01:43.612Z,8.30
2023-05-19T05:02:43.541Z,8.20
2023-05-19T05:03:43.500Z,8.10
2023-05-19T05:04:43.332Z,8.20
2023-05-19T05:05:43.275Z,7.50
2023-05-19T05:06:43.179Z,7.90
2023-05-19T05:07:43.078Z,7.90
2023-05-19T05:08:43.079Z,7.80
2023-05-19T05:09:42.987Z,7.50
2023-05-19T05:10:42.919Z,8.10
2023-05-19T05:11:42.841Z,7.60
2023-05-19T05:12:42.833Z,7.70
2023-05-19T05:13:43.331Z,7.60
2023-05-19T05:14:42.654Z,7.90
2023-05-19T05:15:42.584Z,7.90
2023-05-19T05:16:42.553Z,6.70
2023-05-19T05:17:42.501Z,7.50
2023-05-19T05:18:44.340Z,7.00
2023-05-19T05:19:42.404Z,7.40
2023-05-19T05:20:42.266Z,6.40
2023-05-19T05:21:42.262Z,7.10
2023-05-19T05:22:42.157Z,6.50
2023-05-19T05:23:42.070Z,7.10
2023-05-19T05:24:42.041Z,7.10
2023-05-19T05:25:41.977Z,5.90
2023-05-19T05:26:41.893Z,6.00
2023-05-19T05:27:41.866Z,6.40
2023-05-19T05:28:41.763Z,6.50
2023-05-19T05:29:41.785Z,6.00
2023-05-19T05:30:41.655Z,6.60
2023-05-19T05:31:41.640Z,6.80
2023-05-19T05:32:41.638Z,6.30
2023-05-19T05:33:41.528Z,5.70
2023-05-19T05:34:41.447Z,6.70
2023-05-19T05:35:41.327Z,6.70
2023-05-19T05:36:41.281Z,6.30
2023-05-19T05:37:41.308Z,6.80
2023-05-19T05:38:41.127Z,6.60
2023-05-19T05:39:41.099Z,5.90
2023-05-19T05:40:41.018Z,6.70
2023-05-19T05:41:40.971Z,6.40
2023-05-19T05:42:40.917Z,6.10
2023-05-19T05:43:40.846Z,6.40
2023-05-19T05:44:40.764Z,6.60
2023-05-19T05:45:40.733Z,6.40
2023-05-19T05:46:40.673Z,6.20
2023-05-19T05:47:40.621Z,7.30
2023-05-19T05:48:40.551Z,7.10
2023-05-19T05:49:40.448Z,6.80
2023-05-19T05:50:40.408Z,6.80
2023-05-19T05:51:40.741Z,6.20
2023-05-19T05:52:40.290Z,6.90
2023-05-19T05:53:40.193Z,6.60
2023-05-19T05:54:40.176Z,6.80
2023-05-19T05:55:40.099Z,7.40
2023-05-19T05:56:40.060Z,7.70
2023-05-19T05:57:40.111Z,6.90
2023-05-19T05:58:39.951Z,7.20
2023-05-19T05:59:39.856Z,6.50
2023-05-19T06:00:39.801Z,7.20
2023-05-19T06:01:39.722Z,7.10
2023-05-19T06:02:39.780Z,6.90
2023-05-19T06:03:39.770Z,7.10
2023-05-19T06:04:39.574Z,6.40
2023-05-19T06:05:39.475Z,7.20
2023-05-19T06:06:40.528Z,6.30
2023-05-19T06:07:39.323Z,6.90
2023-05-19T06:08:39.283Z,7.40
2023-05-19T06:09:39.260Z,8.00
2023-05-19T06:10:39.165Z,6.30
2023-05-19T06:11:39.069Z,7.20
2023-05-19T06:12:39.042Z,6.70
2023-05-19T06:13:39.862Z,7.00
2023-05-19T06:14:38.905Z,7.30
2023-05-19T06:15:38.845Z,7.20
2023-05-19T06:16:38.773Z,7.10
2023-05-19T06:17:38.856Z,6.20
2023-05-19T06:18:38.700Z,6.40
2023-05-19T06:19:38.641Z,6.80
2023-05-19T06:20:38.600Z,6.20
2023-05-19T06:21:38.481Z,6.40
2023-05-19T06:22:38.358Z,6.60
2023-05-19T06:23:38.322Z,6.20
2023-05-19T06:24:39.596Z,7.30
2023-05-19T06:25:38.267Z,6.30
2023-05-19T06:26:38.238Z,6.30
2023-05-19T06:27:38.073Z,7.10
2023-05-19T06:28:37.997Z,7.00
2023-05-19T06:29:37.945Z,6.90
2023-05-19T06:30:37.911Z,7.40
2023-05-19T06:31:37.939Z,7.30
2023-05-19T06:32:37.842Z,8.20
2023-05-19T06:33:37.725Z,7.80
2023-05-19T06:34:37.693Z,6.60
2023-05-19T06:35:37.618Z,8.20
2023-05-19T06:36:37.672Z,7.10
2023-05-19T06:37:37.474Z,6.30
2023-05-19T06:38:37.419Z,6.90
2023-05-19T06:39:37.315Z,7.10
2023-05-19T06:40:37.293Z,7.60
2023-05-19T06:41:37.233Z,7.00
2023-05-19T06:42:37.160Z,7.80
2023-05-19T06:43:37.087Z,6.30
2023-05-19T06:44:37.030Z,7.00
2023-05-19T06:45:36.983Z,6.20
2023-05-19T06:46:36.921Z,6.90
2023-05-19T06:47:36.972Z,6.90
2023-05-19T06:48:36.767Z,6.70
2023-05-19T06:49:36.703Z,6.90
2023-05-19T06:50:36.676Z,6.80
2023-05-19T06:51:36.626Z,7.90
2023-05-19T06:52:36.579Z,6.60
2023-05-19T06:53:36.508Z,6.50
2023-05-19T06:54:36.459Z,6.10
2023-05-19T06:55:41.428Z,7.30
2023-05-19T06:56:36.282Z,6.70
2023-05-19T06:57:36.254Z,6.70
2023-05-19T06:58:36.231Z,7.10
2023-05-19T06:59:36.112Z,6.40
2023-05-19T07:00:36.269Z,6.70
2023-05-19T07:01:36.096Z,7.10
2023-05-19T07:02:36.001Z,7.30
2023-05-19T07:03:35.919Z,7.10
2023-05-19T07:04:35.778Z,6.60
2023-05-19T07:05:35.758Z,6.90
2023-05-19T07:06:35.676Z,7.60
2023-05-19T07:07:35.599Z,7.00
2023-05-19T07:08:35.560Z,6.30
2023-05-19T07:09:35.520Z,6.80
2023-05-19T07:10:35.508Z,6.80
2023-05-19T07:11:35.509Z,6.70
2023-05-19T07:12:35.313Z,6.90
2023-05-19T07:13:35.260Z,6.80
2023-05-19T07:14:36.024Z,6.70
2023-05-19T07:15:35.098Z,7.30
2023-05-19T07:16:35.103Z,6.80
2023-05-19T07:17:35.045Z,6.30
2023-05-19T07:18:34.959Z,6.80
2023-05-19T07:19:34.859Z,7.50
2023-05-19T07:20:35.048Z,6.30
2023-05-19T07:21:34.743Z,6.50
2023-05-19T07:22:34.745Z,6.70
2023-05-19T07:23:34.658Z,6.90
2023-05-19T07:24:34.636Z,6.60
2023-05-19T07:25:34.486Z,6.40
2023-05-19T07:26:34.441Z,6.60
2023-05-19T07:27:34.414Z,6.00
2023-05-19T07:28:34.323Z,6.80
2023-05-19T07:29:34.318Z,7.10
2023-05-19T07:30:34.553Z,6.20
2023-05-19T07:31:34.217Z,6.20
2023-05-19T07:32:34.151Z,6.10
2023-05-19T07:33:34.038Z,6.70
2023-05-19T07:34:33.958Z,6.20
2023-05-19T07:35:33.894Z,6.30
2023-05-19T07:36:33.829Z,5.90
2023-05-19T07:37:33.818Z,5.50
2023-05-19T07:38:33.756Z,6.50
2023-05-19T07:39:33.663Z,5.60
2023-05-19T07:40:33.779Z,5.80
2023-05-19T07:41:34.430Z,6.10
2023-05-19T07:42:33.471Z,5.70
2023-05-19T07:43:33.400Z,6.10
2023-05-19T07:44:33.339Z,6.10
2023-05-19T07:45:33.334Z,5.80
2023-05-19T07:46:33.360Z,5.60
2023-05-19T07:47:34.007Z,5.70
2023-05-19T07:48:33.136Z,6.30
2023-05-19T07:49:33.042Z,5.90
2023-05-19T07:50:33.646Z,5.60
2023-05-19T07:51:32.949Z,5.80
2023-05-19T07:52:33.861Z,6.10
2023-05-19T07:53:32.837Z,6.10
2023-05-19T07:54:32.765Z,6.00
2023-05-19T07:55:32.737Z,6.70
2023-05-19T07:56:32.646Z,6.40
2023-05-19T07:57:32.561Z,6.60
2023-05-19T07:58:32.543Z,5.90
2023-05-19T07:59:32.464Z,6.00
2023-05-19T08:00:32.676Z,5.80
2023-05-19T08:01:32.323Z,6.10
2023-05-19T08:02:32.386Z,6.30
2023-05-19T08:03:32.395Z,5.90
2023-05-19T08:04:32.201Z,6.20
2023-05-19T08:05:32.125Z,6.30
2023-05-19T08:06:32.078Z,6.00
2023-05-19T08:07:31.983Z,6.10
2023-05-19T08:08:31.926Z,6.50
2023-05-19T08:09:31.859Z,5.50
2023-05-19T08:10:31.943Z,5.20
2023-05-19T08:11:31.725Z,6.40
2023-05-19T08:12:31.694Z,6.10
2023-05-19T08:13:31.597Z,6.00
2023-05-19T08:14:31.551Z,5.90
2023-05-19T08:15:31.531Z,5.90
2023-05-19T08:16:31.461Z,6.10
2023-05-19T08:17:31.401Z,5.90
2023-05-19T08:18:31.321Z,6.10
2023-05-19T08:19:31.290Z,5.80
2023-05-19T08:20:31.476Z,5.40
2023-05-19T08:21:31.112Z,6.60
2023-05-19T08:22:31.080Z,5.90
2023-05-19T08:23:31.025Z,5.90
2023-05-19T08:24:31.027Z,5.50
2023-05-19T08:25:30.876Z,6.10
2023-05-19T08:26:30.793Z,6.00
2023-05-19T08:27:31.313Z,6.20
2023-05-19T08:28:30.731Z,6.40
2023-05-19T08:29:30.681Z,5.70
2023-05-19T08:30:30.790Z,5.70
2023-05-19T08:31:30.535Z,6.00
2023-05-19T08:32:30.480Z,5.50
2023-05-19T08:33:30.458Z,5.60
2023-05-19T08:34:30.370Z,5.90
2023-05-19T08:35:30.306Z,5.10
2023-05-19T08:36:30.223Z,6.30
2023-05-19T08:37:31.478Z,6.00
2023-05-19T08:38:30.104Z,5.70
2023-05-19T08:39:30.815Z,6.00
2023-05-19T08:40:30.076Z,5.70
2023-05-19T08:41:30.062Z,5.80
2023-05-19T08:42:29.840Z,6.00
2023-05-19T08:43:30.300Z,5.90
2023-05-19T08:44:29.776Z,5.60
2023-05-19T08:45:30.013Z,5.80
2023-05-19T08:46:29.676Z,6.30
2023-05-19T08:47:29.631Z,6.40
2023-05-19T08:48:29.588Z,5.50
2023-05-19T08:49:29.463Z,6.10
2023-05-19T08:50:29.421Z,6.30
2023-05-19T08:51:29.365Z,6.00
2023-05-19T08:52:29.274Z,5.70
2023-05-19T08:53:33.401Z,5.90
2023-05-19T08:54:29.163Z,5.50
2023-05-19T08:55:29.156Z,5.50
2023-05-19T08:56:29.581Z,6.00
2023-05-19T08:57:28.980Z,5.80
2023-05-19T08:58:28.971Z,6.00
2023-05-19T08:59:28.915Z,5.30
2023-05-19T09:00:28.830Z,6.00
2023-05-19T09:01:28.858Z,5.80
2023-05-19T09:02:28.715Z,5.90
2023-05-19T09:03:28.688Z,5.70
2023-05-19T09:04:30.164Z,6.00
2023-05-19T09:05:28.611Z,6.10
2023-05-19T09:06:28.508Z,6.90
2023-05-19T09:07:28.380Z,5.70
2023-05-19T09:08:28.350Z,6.10
2023-05-19T09:09:28.314Z,6.80
2023-05-19T09:10:29.199Z,6.00
2023-05-19T09:11:28.141Z,6.10
2023-05-19T09:12:28.125Z,5.90
2023-05-19T09:13:28.045Z,5.40
2023-05-19T09:14:27.980Z,5.40
2023-05-19T09:15:27.960Z,5.60
2023-05-19T09:16:29.369Z,5.70
2023-05-19T09:17:27.877Z,5.30
2023-05-19T09:18:27.762Z,5.60
2023-05-19T09:19:27.778Z,5.80
2023-05-19T09:20:27.666Z,5.60
2023-05-19T09:21:27.546Z,6.00
2023-05-19T09:22:27.490Z,6.30
2023-05-19T09:23:27.497Z,5.90
2023-05-19T09:24:27.378Z,5.60
2023-05-19T09:25:27.357Z,5.50
2023-05-19T09:26:27.285Z,5.90
2023-05-19T09:27:27.202Z,6.30
2023-05-19T09:28:27.188Z,6.20
2023-05-19T09:29:27.088Z,6.00
2023-05-19T09:30:27.039Z,6.00
2023-05-19T09:31:26.960Z,6.20
2023-05-19T09:32:27.378Z,5.50
2023-05-19T09:33:26.929Z,5.20
2023-05-19T09:34:26.771Z,6.20
2023-05-19T09:35:26.700Z,5.70
2023-05-19T09:36:26.691Z,5.40
2023-05-19T09:37:26.669Z,5.50
2023-05-19T09:38:26.535Z,5.90
2023-05-19T09:39:26.521Z,5.20
2023-05-19T09:40:26.436Z,5.70
2023-05-19T09:41:26.364Z,5.80
2023-05-19T09:42:26.286Z,5.20
2023-05-19T09:43:26.301Z,6.20
2023-05-19T09:44:26.229Z,5.90
2023-05-19T09:45:26.133Z,5.50
2023-05-19T09:46:26.115Z,5.60
2023-05-19T09:47:26.006Z,5.70
2023-05-19T09:48:26.015Z,5.80
2023-05-19T09:49:25.891Z,5.60
2023-05-19T09:50:25.869Z,5.20
2023-05-19T09:51:25.799Z,5.90
2023-05-19T09:52:25.730Z,5.40
2023-05-19T09:53:25.662Z,4.70
2023-05-19T09:54:25.563Z,5.20
2023-05-19T09:55:25.525Z,5.70
2023-05-19T09:56:25.549Z,5.90
2023-05-19T09:57:25.390Z,5.10
2023-05-19T09:58:25.363Z,5.00
2023-05-19T09:59:25.848Z,5.70
2023-05-19T10:00:25.177Z,5.60
2023-05-19T10:01:25.208Z,6.10
2023-05-19T10:02:25.103Z,5.40
2023-05-19T10:03:25.093Z,5.80
2023-05-19T10:04:25.824Z,5.70
2023-05-19T10:05:24.936Z,6.40
2023-05-19T10:06:24.918Z,5.20
2023-05-19T10:07:24.810Z,5.90
2023-05-19T10:08:24.760Z,5.50
2023-05-19T10:09:24.701Z,5.20
2023-05-19T10:10:24.666Z,5.40
2023-05-19T10:11:24.587Z,5.50
2023-05-19T10:12:24.516Z,5.30
2023-05-19T10:13:24.485Z,5.60
2023-05-19T10:14:24.361Z,5.50
2023-05-19T10:15:24.335Z,5.00
2023-05-19T10:16:24.330Z,4.90
2023-05-19T10:17:24.245Z,5.20
2023-05-19T10:18:24.138Z,5.10
2023-05-19T10:19:25.717Z,5.50
2023-05-19T10:20:24.050Z,5.50
2023-05-19T10:21:24.008Z,5.10
2023-05-19T10:22:23.938Z,4.90
2023-05-19T10:23:23.837Z,5.10
2023-05-19T10:24:23.821Z,5.60
2023-05-19T10:25:23.709Z,5.60
2023-05-19T10:26:23.694Z,5.10
2023-05-19T10:27:23.587Z,5.30
2023-05-19T10:28:23.551Z,5.40
2023-05-19T10:29:23.531Z,5.20
2023-05-19T10:30:23.433Z,5.10
2023-05-19T10:31:23.438Z,5.50
2023-05-19T10:32:23.387Z,5.10
2023-05-19T10:33:23.294Z,5.20
2023-05-19T10:34:23.198Z,5.40
2023-05-19T10:35:23.131Z,5.80
2023-05-19T10:36:23.130Z,5.20
2023-05-19T10:37:22.976Z,5.20
2023-05-19T10:38:22.957Z,5.10
2023-05-19T10:39:22.887Z,5.50
2023-05-19T10:40:23.004Z,5.80
2023-05-19T10:41:22.780Z,5.30
2023-05-19T10:42:22.709Z,5.60
2023-05-19T10:43:22.670Z,5.70
2023-05-19T10:44:22.597Z,5.30
2023-05-19T10:45:22.613Z,5.50
2023-05-19T10:46:22.528Z,5.00
2023-05-19T10:47:22.451Z,5.20
2023-05-19T10:48:22.373Z,5.60
2023-05-19T10:49:22.250Z,5.40
2023-05-19T10:50:22.263Z,5.20
2023-05-19T10:51:22.216Z,5.10
2023-05-19T10:52:22.150Z,4.80
2023-05-19T10:53:22.003Z,5.20
2023-05-19T10:54:21.969Z,5.10
2023-05-19T10:55:21.985Z,5.20
2023-05-19T10:56:21.914Z,5.40
2023-05-19T10:57:21.774Z,5.90
2023-05-19T10:58:21.721Z,5.40
2023-05-19T10:59:21.682Z,6.00
2023-05-19T11:00:21.631Z,5.50
2023-05-19T11:01:21.586Z,5.90
2023-05-19T11:02:21.615Z,5.60
2023-05-19T11:03:21.497Z,5.40
2023-05-19T11:04:21.452Z,5.40
2023-05-19T11:05:21.300Z,5.30
2023-05-19T11:06:21.827Z,5.20
2023-05-19T11:07:21.201Z,4.90
2023-05-19T11:08:21.149Z,5.50
2023-05-19T11:09:31.103Z,5.30
2023-05-19T11:11:20.971Z,5.00
2023-05-19T11:12:20.876Z,5.20
2023-05-19T11:13:22.664Z,5.00
2023-05-19T11:14:20.760Z,5.30
2023-05-19T11:15:20.694Z,5.10
2023-05-19T11:16:20.642Z,6.10
2023-05-19T11:17:20.637Z,5.60
2023-05-19T11:18:20.589Z,5.60
2023-05-19T11:19:20.548Z,6.00
2023-05-19T11:20:20.564Z,5.20
2023-05-19T11:21:20.381Z,5.40
2023-05-19T11:22:20.271Z,5.40
2023-05-19T11:23:20.299Z,5.80
2023-05-19T11:24:20.185Z,5.30
2023-05-19T11:25:20.100Z,4.90
2023-05-19T11:26:20.075Z,5.60
2023-05-19T11:27:19.970Z,5.40
2023-05-19T11:28:20.190Z,5.10
2023-05-19T11:29:19.846Z,5.30
2023-05-19T11:30:20.303Z,5.70
2023-05-19T11:31:19.815Z,5.80
2023-05-19T11:32:19.808Z,5.80
2023-05-19T11:33:19.922Z,6.70
2023-05-19T11:34:20.052Z,5.80
2023-05-19T11:35:19.612Z,5.20
2023-05-19T11:36:19.486Z,4.80
2023-05-19T11:37:19.510Z,5.00
2023-05-19T11:38:19.311Z,4.80
2023-05-19T11:39:20.433Z,5.30
2023-05-19T11:40:19.151Z,5.10
2023-05-19T11:41:20.774Z,5.40
2023-05-19T11:42:19.046Z,4.70
2023-05-19T11:43:19.164Z,5.30
2023-05-19T11:44:18.964Z,5.10
2023-05-19T11:45:18.914Z,5.50
2023-05-19T11:46:18.853Z,5.00
2023-05-19T11:47:18.748Z,5.10
2023-05-19T11:48:18.713Z,4.50
2023-05-19T11:49:18.644Z,5.20
2023-05-19T11:50:18.623Z,4.60
2023-05-19T11:51:18.526Z,5.30
2023-05-19T11:52:18.428Z,5.20
2023-05-19T11:53:18.391Z,4.90
2023-05-19T11:54:18.334Z,5.00
2023-05-19T11:55:18.317Z,4.80
2023-05-19T11:56:18.360Z,5.10
2023-05-19T11:57:18.139Z,4.70
2023-05-19T11:58:18.126Z,5.10
2023-05-19T11:59:18.021Z,4.70
2023-05-19T12:00:18.022Z,4.90
2023-05-19T12:01:17.933Z,5.00
2023-05-19T12:02:17.936Z,5.10
2023-05-19T12:03:17.898Z,4.50
2023-05-19T12:04:17.741Z,4.80
2023-05-19T12:05:17.782Z,4.90
2023-05-19T12:06:17.728Z,4.80
2023-05-19T12:07:17.575Z,4.90
2023-05-19T12:08:17.482Z,4.70
2023-05-19T12:09:17.439Z,4.80
2023-05-19T12:10:18.308Z,4.60
2023-05-19T12:11:18.238Z,4.90
2023-05-19T12:12:17.314Z,4.60
2023-05-19T12:13:17.200Z,4.90
2023-05-19T12:14:17.142Z,4.70
2023-05-19T12:15:17.067Z,4.70
2023-05-19T12:16:17.060Z,4.40
2023-05-19T12:17:17.022Z,4.60
2023-05-19T12:18:16.922Z,4.50
2023-05-19T12:19:16.900Z,4.50
2023-05-19T12:20:16.823Z,4.70
2023-05-19T12:21:16.695Z,4.80
2023-05-19T12:22:16.672Z,4.80
2023-05-19T12:23:16.594Z,4.40
2023-05-19T12:24:17.302Z,4.10
2023-05-19T12:25:16.479Z,4.30
2023-05-19T12:26:16.422Z,4.50
2023-05-19T12:27:16.302Z,4.50
2023-05-19T12:28:16.403Z,4.60
2023-05-19T12:29:16.237Z,4.70
2023-05-19T12:30:16.150Z,4.60
2023-05-19T12:31:16.125Z,4.50
2023-05-19T12:32:16.055Z,4.70
2023-05-19T12:33:16.111Z,4.60
2023-05-19T12:34:15.965Z,4.40
2023-05-19T12:35:15.880Z,4.60
2023-05-19T12:36:15.857Z,5.10
2023-05-19T12:37:15.750Z,4.30
2023-05-19T12:38:15.756Z,4.50
2023-05-19T12:39:15.598Z,4.60
2023-05-19T12:40:15.641Z,4.50
2023-05-19T12:41:15.604Z,5.50
2023-05-19T12:42:15.397Z,5.30
2023-05-19T12:43:15.394Z,5.10
2023-05-19T12:44:15.362Z,4.50
2023-05-19T12:45:15.278Z,4.80
2023-05-19T12:46:15.308Z,5.10
2023-05-19T12:47:15.145Z,4.60
2023-05-19T12:48:15.128Z,4.60
2023-05-19T12:49:15.077Z,4.70
2023-05-19T12:50:14.934Z,4.90
2023-05-19T12:51:14.939Z,4.50
2023-05-19T12:52:14.799Z,4.70
2023-05-19T12:53:14.837Z,4.70
2023-05-19T12:54:14.719Z,4.70
2023-05-19T12:55:14.735Z,5.00
2023-05-19T12:56:14.702Z,4.60
2023-05-19T12:57:14.552Z,4.50
2023-05-19T12:58:14.498Z,5.60
2023-05-19T12:59:16.906Z,5.00
2023-05-19T13:00:14.390Z,5.10
2023-05-19T13:01:14.443Z,5.20
2023-05-19T13:02:14.310Z,4.70
2023-05-19T13:03:14.341Z,4.50
2023-05-19T13:04:14.236Z,4.40
2023-05-19T13:05:14.096Z,4.70
2023-05-19T13:06:14.002Z,4.90
2023-05-19T13:07:13.979Z,4.90
2023-05-19T13:08:16.363Z,4.70
2023-05-19T13:09:15.194Z,4.80
2023-05-19T13:10:13.758Z,4.90
2023-05-19T13:11:13.648Z,5.10
2023-05-19T13:12:13.627Z,4.60
2023-05-19T13:13:13.547Z,4.50
2023-05-19T13:14:13.502Z,4.80
2023-05-19T13:15:13.484Z,5.10
2023-05-19T13:16:13.617Z,4.80
2023-05-19T13:17:13.298Z,4.80
2023-05-19T13:18:13.286Z,4.90